Bodega Marine Reserve, California Weather observations

Data are for 10 minute period ending at time listed.
 Day   Time   Solar   Ave.   Ave.  Ave.  Vector  Max.   Baro.   Total    
  of    of     Rad.   Air    Rel.  Wind   Wind   Wind  Press.  Precip.   
Year   Day            Temp.  Hum.  Speed  Dir.   Gust                    
2017   (PST)  Kw/m2    F      %     mph   deg.    mph    mb.     in.     
-------------------------------------------------------------------------
  53   18:10   0.05   47.7    64   25.8   312    35.1   1020.0    0.00 
  53   18:20   0.04   47.0    61   19.8   313    27.1   1020.3    0.00 
  53   18:30   0.03   46.6    62   20.0   312    25.7   1020.0    0.00 
  53   18:40   0.01   46.6    67   17.8   311    23.9   1020.0    0.00 
  53   18:50   0.01   46.7    67   19.3   311    24.8   1020.0    0.00 
  53   19:00   0.01   46.4    73   21.6   303    33.2   1020.0    0.00 
  53   19:10   100.00  99999.0   99999  99999.0   99999   99999.0   99999.0   99999.00 
  53   19:20   100.00  99999.0   99999  99999.0   99999   99999.0   99999.0   99999.00 
  53   19:30   100.00  99999.0   99999  99999.0   99999   99999.0   99999.0   99999.00 
  53   19:40   100.00  99999.0   99999  99999.0   99999   99999.0   99999.0   99999.00 
  53   19:50   100.00  99999.0   99999  99999.0   99999   99999.0   99999.0   99999.00 
  53   20:00   0.00   45.7    68   22.5   311    30.8   1019.6    0.00 
  53   20:10   100.00  99999.0   99999  99999.0   99999   99999.0   99999.0   99999.00 
  53   20:20   100.00  99999.0   99999  99999.0   99999   99999.0   99999.0   99999.00 
  53   20:30   100.00  99999.0   99999  99999.0   99999   99999.0   99999.0   99999.00 
  53   20:40   0.00   45.2    68   19.0   316    24.5   1020.0    0.00 
  53   20:50   0.00   45.3    67   19.2   317    24.3   1019.6    0.00 
  53   21:00   0.00   45.3    67   19.4   318    25.6   1020.0    0.00 
  53   21:10   100.00  99999.0   99999  99999.0   99999   99999.0   99999.0   99999.00 
  53   21:20   100.00  99999.0   99999  99999.0   99999   99999.0   99999.0   99999.00 
  53   21:30   100.00  99999.0   99999  99999.0   99999   99999.0   99999.0   99999.00 
  53   21:40   100.00  99999.0   99999  99999.0   99999   99999.0   99999.0   99999.00 
  53   21:50   100.00  99999.0   99999  99999.0   99999   99999.0   99999.0   99999.00 
  53   22:00   0.00   92.6    23   23.4    -2    11.9   242500.1   509.20 
  53   22:10   0.00   45.1    64   19.3   315    25.8   1020.0    0.00 
  53   22:20   0.00   44.9    65   16.7   311    25.1   1020.0    0.00 
  53   22:30   0.00   44.8    64   18.2   311    24.9   1020.3    0.00 
  53   22:40   0.00   44.8    63   19.8   312    25.9   1020.3    0.00 
  53   22:50   0.00   44.8    64   18.9   314    27.2   1020.3    0.00 
  53   23:00   0.00   44.6    64   17.6   316    23.2   1020.3    0.00 
  53   23:10   0.00   44.8    63   19.2   314    27.4   1020.7    0.00 
  53   23:20   0.00   44.7    64   17.6   312    24.2   1020.7    0.00 
  53   23:30   0.00   44.7    63   17.4   310    22.7   1020.3    0.00 
  53   23:40   0.00   44.8    64   16.2   313    22.6   1020.3    0.00 
  53   23:50   0.00   44.9    64   16.1   320    23.3   1020.3    0.00 
  54    0:00   0.00   44.6    64   16.1   320    23.5   1020.7    0.00 
  54    0:10   0.00   44.4    64   14.4   320    21.7   1020.7    0.00 
  54    0:20   0.00   44.1    65   14.9   315    21.2   1020.7    0.00 
  54    0:30   0.00   44.3    65   15.9   316    23.4   1020.7    0.00 
  54    0:40   0.00   44.5    64   15.8   318    23.1   1020.7    0.00 
  54    0:50   0.00   44.1    66   12.9   323    20.2   1020.7    0.00 
  54    1:00   0.00   44.1    66   13.8   321    24.6   1020.7    0.00 
  54    1:10   100.00  99999.0   99999  99999.0   99999   99999.0   99999.0   99999.00 
  54    1:20   100.00  99999.0   99999  99999.0   99999   99999.0   99999.0   99999.00 
  54    1:30   100.00  99999.0   99999  99999.0   99999   99999.0   99999.0   99999.00 
  54    1:40   100.00  99999.0   99999  99999.0   99999   99999.0   99999.0   99999.00 
  54    1:50   100.00  99999.0   99999  99999.0   99999   99999.0   99999.0   99999.00 
  54    2:00   0.00   43.6    66   15.0   328    21.4   1020.3    0.00 
  54    2:10   0.00   43.2    67   13.1   334    18.6   1020.3    0.00 
  54    2:20   0.00   43.1    68   12.0   323    17.2   1020.3    0.00 
  54    2:30   0.00   43.2    68   11.2   327    16.6   1020.3    0.00 
  54    2:40   0.00   42.7    68   11.1   328    15.0   1020.3    0.00 
  54    2:50   0.00   42.9    68   10.6   324    15.3   1020.3    0.00 
  54    3:00   0.00   43.0    68   11.9   319    17.1   1020.3    0.00 
  54    3:10   0.00   43.1    67   14.9   318    20.8   1020.0    0.00 
  54    3:20   0.00   43.0    67   11.7   326    17.3   1020.0    0.00 
  54    3:30   0.00   43.1    66   13.8   320    20.9   1020.0    0.00 
  54    3:40   0.00   43.3    63   15.6   325    24.0   1020.0    0.00 
  54    3:50   0.00   43.1    63   14.2   325    19.0   1020.0    0.00 
  54    4:00   0.00   42.8    66   13.5   313    19.6   1020.0    0.00 
  54    4:10   100.00  99999.0   99999  99999.0   99999   99999.0   99999.0   99999.00 
  54    4:20   100.00  99999.0   99999  99999.0   99999   99999.0   99999.0   99999.00 
  54    4:30   100.00  99999.0   99999  99999.0   99999   99999.0   99999.0   99999.00 
  54    4:40   100.00  99999.0   99999  99999.0   99999   99999.0   99999.0   99999.00 
  54    4:50   0.00   42.9    66   15.2   313    22.4   1019.6    0.00 
  54    5:00   0.00   43.0    65   15.4   315    21.5   1019.6    0.00 
  54    5:10   0.00  1283.0    23    7.3    23   7396.0   1513.0    7.20 
  54    5:20   0.00   41.9    68    8.6   331    11.3   1020.0    0.00 
  54    5:30   0.00   41.7    67   10.0   329    14.2   1020.0    0.00 
  54    5:40   0.00   42.1    64   12.6   326    17.2   1020.0    0.00 
  54    5:50   0.00   42.5    65   12.3   319    16.6   1020.0    0.00 
  54    6:00   0.00   42.4    67   10.7   315    14.5   1020.0    0.00 
  54    6:10   100.00  99999.0   99999  99999.0   99999   99999.0   99999.0   99999.00 
  54    6:20   100.00  99999.0   99999  99999.0   99999   99999.0   99999.0   99999.00 
  54    6:30   100.00  99999.0   99999  99999.0   99999   99999.0   99999.0   99999.00 
  54    6:40   100.00  99999.0   99999  99999.0   99999   99999.0   99999.0   99999.00 
  54    6:50   100.00  99999.0   99999  99999.0   99999   99999.0   99999.0   99999.00 
  54    7:00   0.00   42.6    67   14.7   310    21.5   1020.0    0.00 
  54    7:10   100.00  99999.0   99999  99999.0   99999   99999.0   99999.0   99999.00 
  54    7:20   100.00  99999.0   99999  99999.0   99999   99999.0   99999.0   99999.00 
  54    7:30   100.00  99999.0   99999  99999.0   99999   99999.0   99999.0   99999.00 
  54    7:40   100.00  99999.0   99999  99999.0   99999   99999.0   99999.0   99999.00 
  54    7:50   100.00  99999.0   99999  99999.0   99999   99999.0   99999.0   99999.00 
  54    8:00   100.00  99999.0   99999  99999.0   99999   99999.0   99999.0   99999.00 
  54    8:10   100.00  99999.0   99999  99999.0   99999   99999.0   99999.0   99999.00 
  54    8:20   100.00  99999.0   99999  99999.0   99999   99999.0   99999.0   99999.00 
  54    8:30   100.00  99999.0   99999  99999.0   99999   99999.0   99999.0   99999.00 
  54    8:40   100.00  99999.0   99999  99999.0   99999   99999.0   99999.0   99999.00 
  54    8:50   100.00  99999.0   99999  99999.0   99999   99999.0   99999.0   99999.00 
  54    9:00   0.14   43.4    60    8.8   332    13.2   1021.0    0.00 
  54    9:10   0.17   44.4    58    9.5   325    14.1   1021.3    0.00 
  54    9:20   0.19   44.9    59    9.8   321    14.5   1021.3    0.00 
  54    9:30   0.22   45.2    60   13.7   310    20.4   1021.3    0.00 
  54    9:40   0.26   45.4    58   14.7   316    19.8   1021.3    0.00 
  54    9:50   0.29   45.8    58   14.8   312    19.8   1021.3    0.00 
  54   10:00   0.31   46.1    56   16.1   310    22.6   1021.0    0.00 
  54   10:10   0.34   46.3    54   16.6   311    22.4   1021.0    0.00 
  54   10:20   0.37   46.9    55   16.9   311    23.5   1021.0    0.00 
  54   10:30   0.40   47.3    55   15.8   311    21.4   1021.0    0.00 
  54   10:40   0.42   47.5    55   18.4   309    24.5   1021.0    0.00 
  54   10:50   0.45   47.8    54   17.1   309    22.2   1021.0    0.00 
  54   11:00   0.47   48.1    52   15.7   309    21.7   1021.0    0.00 
  54   11:10   0.50   48.4    52   15.1   313    20.2   1021.3    0.00 
  54   11:20   0.52   48.6    49   16.0   316    21.4   1021.3    0.00 
  54   11:30   0.54   48.7    50   14.7   313    21.3   1021.3    0.00 
  54   11:40   0.56   49.3    50   15.1   307    20.8   1021.3    0.00 
  54   11:50   0.57   49.5    51   14.9   306    20.2   1021.3    0.00 
  54   12:00   0.59   49.7    52   15.0   299    20.3   1021.3    0.00 
  54   12:10   0.60   50.2    51   14.5   298    20.5   1021.3    0.00 
  54   12:20   0.61   50.2    51   16.9   302    22.0   1021.3    0.00 
  54   12:30   0.62   50.3    51   15.2   302    20.2   1021.3    0.00 
  54   12:40   0.63   50.9    53   14.8   298    20.3   1021.0    0.00 
  54   12:50   0.64   50.6    52   14.9   303    21.0   1021.3    0.00 
  54   13:00   0.65   51.0    51   16.2   304    23.0   1021.0    0.00 
  54   13:10   0.65   51.4    52   15.5   299    23.0   1021.0    0.00 
  54   13:20   0.66   51.6    51   15.7   300    21.6   1021.0    0.00 
  54   13:30   0.66   51.8    52   15.8   297    22.1   1020.7    0.00 
  54   13:40   0.66   51.5    53   16.2   296    23.5   1020.7    0.00 
  54   13:50   0.65   51.2    53   16.4   294    22.4   1020.7    0.00 
  54   14:00   0.65   52.0    52   15.0   298    22.3   1020.7    0.00 
  54   14:10   0.65   51.8    52   14.8   296    22.5   1020.3    0.00 
  54   14:20   0.62   52.0    51   16.8   296    22.4   1020.3    0.00 
  54   14:30   0.63   51.6    53   17.6   297    24.4   1020.3    0.00 
  54   14:40   0.62   51.9    54   16.4   298    23.8   1020.0    0.00 
  54   14:50   0.61   51.7    53   18.1   296    25.3   1020.0    0.00 
  54   15:00   0.60   51.6    54   18.7   300    25.4   1020.0    0.00 
  54   15:10   0.58   51.6    53   18.2   301    24.3   1020.0    0.00 
  54   15:20   0.57   51.4    54   18.9   301    26.4   1019.6    0.00 
  54   15:30   0.55   51.7    54   18.3   302    25.4   1019.6    0.00 
  54   15:40   0.53   51.5    56   19.6   301    28.3   1019.6    0.00 
  54   15:50   0.51   51.2    55   21.1   302    27.0   1019.6    0.00 
  54   16:00   0.49   51.1    56   21.3   299    30.0   1019.6    0.00 
  54   16:10   0.46   51.2    58   19.9   304    27.6   1019.6    0.00 
  54   16:20   0.44   51.1    57   19.5   304    28.4   1019.6    0.00 
  54   16:30   0.41   50.8    58   19.3   303    26.2   1019.6    0.00 
  54   16:40   0.39   50.9    58   20.0   303    27.6   1019.3    0.00 
  54   16:50   0.36   50.6    58   20.3   305    27.7   1019.3    0.00 
  54   17:00   0.33   50.5    59   19.9   304    27.5   1019.3    0.00 
  54   17:10   0.30   50.4    59   20.1   299    27.5   1019.3    0.00 
  54   17:20   0.27   50.0    60   19.8   300    25.9   1019.0    0.00 
  54   17:30   0.24   49.7    61   19.8   301    28.9   1019.0    0.00 
  54   17:40   0.21   49.6    60   21.4   300    28.9   1019.0    0.00 
  54   17:50   0.18   49.2    60   21.5   301    28.6   1019.0    0.00 
  54   18:00   0.15   48.9    61   22.3   301    30.5   1019.0    0.00 

Return to Bodega Marine Reserve graphs page.


Western Regional Climate Center,wrcc@dri.edu